createdAt,value
2017-12-26T00:01:27.123Z,19.67
2017-12-26T00:03:55.918Z,19.05
2017-12-26T00:06:24.141Z,20.23
2017-12-26T00:08:53.076Z,18.12
2017-12-26T00:11:21.221Z,17.10
2017-12-26T00:13:49.416Z,17.92
2017-12-26T00:16:17.283Z,19.37
2017-12-26T00:22:17.181Z,18.77
2017-12-26T00:24:45.940Z,16.30
2017-12-26T00:27:14.805Z,17.75
2017-12-26T00:29:42.678Z,17.70
2017-12-26T00:32:11.353Z,17.65
2017-12-26T00:34:39.321Z,20.00
2017-12-26T00:37:07.181Z,18.20
2017-12-26T00:39:39.200Z,17.30
2017-12-26T00:42:07.040Z,18.98
2017-12-26T00:44:35.733Z,20.90
2017-12-26T00:47:03.716Z,18.10
2017-12-26T00:49:31.638Z,19.95
2017-12-26T00:52:03.346Z,21.08
2017-12-26T00:54:31.213Z,19.20
2017-12-26T00:56:59.025Z,20.65
2017-12-26T00:59:27.702Z,17.17
2017-12-26T01:01:56.464Z,18.80
2017-12-26T01:04:25.105Z,17.80
2017-12-26T01:06:52.878Z,20.10
2017-12-26T01:09:21.721Z,19.02
2017-12-26T01:11:50.061Z,18.60
2017-12-26T01:14:18.271Z,16.92
2017-12-26T01:16:46.485Z,18.58
2017-12-26T01:19:16.122Z,19.27
2017-12-26T01:21:45.039Z,19.12
2017-12-26T01:24:15.766Z,18.98
2017-12-26T01:26:44.785Z,20.17
2017-12-26T01:29:14.574Z,18.77
2017-12-26T01:31:43.201Z,19.08
2017-12-26T01:34:13.614Z,19.90
2017-12-26T01:36:42.968Z,20.27
2017-12-26T01:39:12.542Z,19.15
2017-12-26T01:41:43.632Z,21.15
2017-12-26T01:44:11.946Z,20.60
2017-12-26T01:46:41.988Z,20.58
2017-12-26T01:49:12.071Z,19.20
2017-12-26T01:51:40.195Z,20.52
2017-12-26T01:54:08.783Z,21.12
2017-12-26T01:56:36.836Z,21.50
2017-12-26T01:59:05.862Z,18.10
2017-12-26T02:01:35.925Z,21.50
2017-12-26T02:04:03.953Z,18.58
2017-12-26T02:06:32.053Z,18.98
2017-12-26T02:09:00.096Z,21.12
2017-12-26T02:11:27.961Z,20.23
2017-12-26T02:13:55.877Z,19.17
2017-12-26T02:16:23.714Z,20.10
2017-12-26T02:18:51.619Z,19.55
2017-12-26T02:21:19.502Z,20.77
2017-12-26T02:23:47.359Z,19.65
2017-12-26T02:26:15.232Z,20.73
2017-12-26T02:28:43.069Z,20.85
2017-12-26T02:31:10.964Z,21.05
2017-12-26T02:33:38.783Z,19.73
2017-12-26T02:36:06.832Z,20.50
2017-12-26T02:38:35.621Z,18.77
2017-12-26T02:41:04.320Z,20.17
2017-12-26T02:43:32.195Z,22.17
2017-12-26T02:46:00.047Z,18.42
2017-12-26T02:48:28.730Z,19.85
2017-12-26T02:50:56.628Z,22.33
2017-12-26T02:53:24.559Z,19.00
2017-12-26T02:55:52.460Z,20.77
2017-12-26T02:58:20.290Z,18.83
2017-12-26T03:00:48.276Z,17.98
2017-12-26T03:03:16.275Z,22.42
2017-12-26T03:05:44.337Z,19.80
2017-12-26T03:08:12.252Z,19.70
2017-12-26T03:10:40.195Z,21.35
2017-12-26T03:13:09.472Z,22.83
2017-12-26T03:15:37.368Z,18.12
2017-12-26T03:18:06.703Z,20.35
2017-12-26T03:20:35.297Z,21.20
2017-12-26T03:23:03.296Z,20.08
2017-12-26T03:25:31.177Z,23.02
2017-12-26T03:27:59.045Z,21.83
2017-12-26T03:30:27.183Z,19.92
2017-12-26T03:32:55.894Z,22.15
2017-12-26T03:35:23.725Z,22.37
2017-12-26T03:37:51.648Z,21.90
2017-12-26T03:40:19.600Z,19.87
2017-12-26T03:42:47.481Z,20.52
2017-12-26T03:45:15.310Z,20.95
2017-12-26T03:47:43.307Z,20.85
2017-12-26T03:50:12.047Z,23.10
2017-12-26T03:52:39.951Z,21.50
2017-12-26T03:55:08.709Z,21.33
2017-12-26T03:57:36.980Z,23.02
2017-12-26T04:00:19.369Z,21.87
2017-12-26T04:02:47.362Z,22.10
2017-12-26T04:05:15.226Z,20.73
2017-12-26T04:07:43.288Z,20.25
2017-12-26T04:10:11.256Z,19.98
2017-12-26T04:12:47.009Z,21.42
2017-12-26T04:15:14.950Z,18.80
2017-12-26T04:17:43.868Z,22.80
2017-12-26T04:20:12.706Z,22.25
2017-12-26T04:22:40.792Z,19.87
2017-12-26T04:25:08.937Z,22.15
2017-12-26T04:27:37.925Z,24.70
2017-12-26T04:30:05.843Z,20.60
2017-12-26T04:32:33.657Z,22.60
2017-12-26T04:35:02.381Z,22.95
2017-12-26T04:37:30.548Z,22.13
2017-12-26T04:39:59.109Z,21.83
2017-12-26T04:42:27.733Z,22.08
2017-12-26T04:44:55.621Z,22.58
2017-12-26T04:47:25.967Z,23.38
2017-12-26T04:49:54.425Z,24.20
2017-12-26T04:52:22.930Z,22.02
2017-12-26T04:54:51.003Z,25.27
2017-12-26T05:00:31.624Z,23.38
2017-12-26T05:02:59.592Z,22.05
2017-12-26T05:05:28.475Z,24.17
2017-12-26T05:07:56.444Z,24.40
2017-12-26T05:10:24.380Z,27.08
2017-12-26T05:12:52.224Z,25.00
2017-12-26T05:15:20.998Z,25.30
2017-12-26T05:17:48.910Z,26.75
2017-12-26T05:20:16.834Z,23.33
2017-12-26T05:22:45.485Z,22.42
2017-12-26T05:25:13.387Z,21.62
2017-12-26T05:27:42.081Z,21.60
2017-12-26T05:30:11.678Z,22.67
2017-12-26T05:32:39.676Z,21.62
2017-12-26T05:35:07.682Z,21.62
2017-12-26T05:37:35.703Z,20.23
2017-12-26T05:40:03.464Z,20.20
2017-12-26T05:42:32.039Z,20.52
2017-12-26T05:44:59.927Z,23.87
2017-12-26T05:47:28.578Z,17.37
2017-12-26T05:49:56.428Z,20.50
2017-12-26T05:52:24.436Z,20.15
2017-12-26T05:54:54.390Z,22.30
2017-12-26T05:57:22.417Z,16.30
2017-12-26T05:59:51.202Z,21.20
2017-12-26T06:02:19.839Z,19.65
2017-12-26T06:04:47.698Z,20.17
2017-12-26T06:07:16.475Z,18.12
2017-12-26T06:09:44.324Z,19.48
2017-12-26T06:12:12.264Z,19.05
2017-12-26T06:14:40.155Z,21.10
2017-12-26T06:17:07.965Z,20.17
2017-12-26T06:19:35.880Z,17.73
2017-12-26T06:22:04.029Z,22.33
2017-12-26T06:24:31.932Z,19.62
2017-12-26T06:26:59.702Z,21.92
2017-12-26T06:29:27.573Z,19.45
2017-12-26T06:31:56.796Z,18.58
2017-12-26T06:34:25.814Z,17.62
2017-12-26T06:36:53.709Z,20.12
2017-12-26T06:39:21.644Z,19.37
2017-12-26T06:41:49.775Z,19.25
2017-12-26T06:44:17.783Z,18.55
2017-12-26T06:46:45.706Z,17.87
2017-12-26T06:49:13.626Z,18.60
2017-12-26T06:51:41.640Z,18.42
2017-12-26T06:54:09.574Z,17.87
2017-12-26T06:56:37.689Z,20.10
2017-12-26T06:59:05.704Z,19.23
2017-12-26T07:01:33.572Z,17.02
2017-12-26T07:04:01.579Z,18.02
2017-12-26T07:06:55.436Z,17.00
2017-12-26T07:09:23.424Z,18.90
2017-12-26T07:11:51.267Z,16.73
2017-12-26T07:14:19.235Z,17.70
2017-12-26T07:16:47.059Z,17.35
2017-12-26T07:19:17.169Z,15.50
2017-12-26T07:21:49.541Z,18.02
2017-12-26T07:24:17.899Z,18.60
2017-12-26T07:26:45.811Z,15.73
2017-12-26T07:29:13.896Z,19.58
2017-12-26T07:31:51.424Z,18.12
2017-12-26T07:40:02.421Z,16.02
2017-12-26T07:42:30.365Z,17.87
2017-12-26T07:45:21.795Z,16.40
2017-12-26T07:47:49.782Z,16.60
2017-12-26T07:50:18.293Z,15.77
2017-12-26T07:52:48.354Z,19.12
2017-12-26T07:55:16.357Z,14.30
2017-12-26T07:57:56.283Z,17.12
2017-12-26T08:00:27.145Z,14.27
2017-12-26T08:02:57.268Z,15.40
2017-12-26T08:05:35.594Z,15.10
2017-12-26T08:08:08.212Z,15.95
2017-12-26T08:10:40.373Z,15.18
2017-12-26T08:13:09.492Z,14.90
2017-12-26T08:15:42.048Z,18.30
2017-12-26T08:18:10.237Z,13.60
2017-12-26T08:20:39.124Z,18.15
2017-12-26T08:23:29.520Z,14.48
2017-12-26T08:25:58.586Z,12.37
2017-12-26T08:28:30.789Z,13.80
2017-12-26T08:30:58.954Z,13.93
2017-12-26T08:33:26.991Z,15.70
2017-12-26T08:35:55.979Z,12.07
2017-12-26T08:38:23.885Z,13.60
2017-12-26T08:40:53.885Z,14.07
2017-12-26T08:43:21.800Z,13.80
2017-12-26T08:45:50.114Z,13.07
2017-12-26T08:48:18.451Z,13.37
2017-12-26T08:50:47.358Z,12.57
2017-12-26T08:53:15.253Z,10.15
2017-12-26T08:55:43.192Z,10.02
2017-12-26T08:58:12.948Z,9.33
2017-12-26T09:00:40.909Z,11.93
2017-12-26T09:03:09.578Z,10.20
2017-12-26T09:05:38.356Z,10.48
2017-12-26T09:08:07.079Z,9.82
2017-12-26T09:10:35.085Z,8.57
2017-12-26T09:13:04.451Z,9.80
2017-12-26T09:15:33.431Z,7.93
2017-12-26T09:18:02.340Z,8.77
2017-12-26T09:20:32.051Z,7.77
2017-12-26T09:23:09.497Z,8.20
2017-12-26T09:25:37.953Z,7.27
2017-12-26T09:28:05.852Z,8.03
2017-12-26T09:30:34.631Z,7.80
2017-12-26T09:33:03.025Z,7.43
2017-12-26T09:35:31.320Z,7.33
2017-12-26T09:38:02.053Z,9.67
2017-12-26T09:40:30.697Z,8.67
2017-12-26T09:42:58.700Z,8.03
2017-12-26T09:45:26.687Z,7.80
2017-12-26T09:47:54.907Z,7.93
2017-12-26T09:50:23.085Z,13.03
2017-12-26T09:52:51.000Z,5.43
2017-12-26T09:55:20.533Z,9.07
2017-12-26T09:57:48.661Z,5.33
2017-12-26T10:00:16.578Z,8.57
2017-12-26T10:02:44.862Z,8.60
2017-12-26T10:05:12.840Z,8.87
2017-12-26T10:07:40.976Z,7.57
2017-12-26T10:10:09.749Z,6.97
2017-12-26T10:12:38.399Z,8.87
2017-12-26T10:15:06.387Z,9.23
2017-12-26T10:17:34.394Z,6.63
2017-12-26T10:20:02.621Z,8.30
2017-12-26T10:22:30.692Z,7.93
2017-12-26T10:24:59.047Z,7.00
2017-12-26T10:27:33.923Z,6.43
2017-12-26T10:30:01.976Z,6.43
2017-12-26T10:32:31.751Z,9.67
2017-12-26T10:35:00.165Z,6.93
2017-12-26T10:37:28.740Z,8.33
2017-12-26T10:39:58.916Z,7.87
2017-12-26T10:42:26.897Z,6.90
2017-12-26T10:44:55.733Z,6.83
2017-12-26T10:47:23.700Z,4.80
2017-12-26T10:49:51.622Z,9.50
2017-12-26T10:52:20.559Z,6.67
2017-12-26T10:54:49.161Z,8.83
2017-12-26T10:57:17.130Z,7.50
2017-12-26T10:59:45.372Z,5.90
2017-12-26T11:02:13.479Z,5.40
2017-12-26T11:04:42.401Z,6.60
2017-12-26T11:07:11.641Z,5.43
2017-12-26T11:09:50.071Z,6.93
2017-12-26T11:12:18.634Z,6.83
2017-12-26T11:14:46.683Z,4.10
2017-12-26T11:17:15.095Z,4.13
2017-12-26T11:19:43.176Z,7.47
2017-12-26T11:22:12.305Z,5.47
2017-12-26T11:24:40.343Z,7.33
2017-12-26T11:27:09.438Z,6.10
2017-12-26T11:29:37.335Z,8.57
2017-12-26T11:32:05.521Z,6.30
2017-12-26T11:34:33.635Z,8.97
2017-12-26T11:37:01.947Z,8.53
2017-12-26T11:39:30.854Z,7.40
2017-12-26T11:41:58.837Z,8.00
2017-12-26T11:44:27.031Z,7.40
2017-12-26T11:46:55.262Z,6.30
2017-12-26T11:49:23.372Z,6.23
2017-12-26T11:51:52.209Z,6.23
2017-12-26T11:54:20.882Z,3.90
2017-12-26T11:56:48.817Z,4.83
2017-12-26T11:59:19.610Z,6.00
2017-12-26T12:01:47.623Z,3.90
2017-12-26T12:04:25.803Z,7.57
2017-12-26T12:06:53.857Z,5.97
2017-12-26T12:09:21.953Z,5.20
2017-12-26T12:11:53.283Z,8.37
2017-12-26T12:14:21.348Z,4.83
2017-12-26T12:16:49.614Z,6.03
2017-12-26T12:19:18.373Z,3.93
2017-12-26T12:21:47.488Z,5.97
2017-12-26T12:24:16.126Z,3.70
2017-12-26T12:26:44.034Z,1.67
2017-12-26T12:29:13.021Z,3.27
2017-12-26T12:31:42.167Z,4.47
2017-12-26T12:34:10.327Z,4.00
2017-12-26T12:36:38.281Z,2.17
2017-12-26T12:39:08.803Z,1.73
2017-12-26T12:41:37.591Z,3.13
2017-12-26T12:44:05.671Z,3.73
2017-12-26T12:46:33.617Z,3.97
2017-12-26T12:49:02.241Z,3.23
2017-12-26T12:51:30.302Z,2.93
2017-12-26T12:53:58.270Z,2.90
2017-12-26T12:56:28.091Z,3.17
2017-12-26T12:58:56.232Z,2.67
2017-12-26T13:01:24.443Z,5.23
2017-12-26T13:03:53.532Z,2.23
2017-12-26T13:06:21.705Z,2.30
2017-12-26T13:08:51.656Z,1.40
2017-12-26T13:11:20.018Z,1.97
2017-12-26T13:13:49.427Z,3.27
2017-12-26T13:16:18.797Z,2.00
2017-12-26T13:18:46.872Z,4.70
2017-12-26T13:21:15.827Z,1.50
2017-12-26T13:23:45.375Z,1.55
2017-12-26T13:26:14.182Z,2.17
2017-12-26T13:28:50.726Z,2.13
2017-12-26T13:31:18.627Z,1.80
2017-12-26T13:33:47.385Z,1.10
2017-12-26T13:36:16.845Z,2.12
2017-12-26T13:38:50.899Z,4.93
2017-12-26T13:41:20.929Z,2.03
2017-12-26T13:43:50.475Z,1.47
2017-12-26T13:46:25.038Z,2.00
2017-12-26T13:49:12.688Z,1.10
2017-12-26T13:51:40.756Z,2.53
2017-12-26T13:54:11.295Z,1.50
2017-12-26T13:56:40.054Z,1.50
2017-12-26T13:59:08.972Z,2.33
2017-12-26T14:01:37.954Z,1.47
2017-12-26T14:04:05.880Z,1.87
2017-12-26T14:06:42.170Z,1.80
2017-12-26T14:09:10.763Z,1.37
2017-12-26T14:11:40.144Z,1.03
2017-12-26T14:14:08.138Z,1.07
2017-12-26T14:16:39.112Z,2.97
2017-12-26T14:19:11.321Z,1.80
2017-12-26T14:21:42.508Z,1.33
2017-12-26T14:24:12.085Z,1.20
2017-12-26T14:26:49.124Z,1.20
2017-12-26T14:29:18.155Z,2.33
2017-12-26T14:31:47.081Z,1.58
2017-12-26T14:34:15.825Z,2.13
2017-12-26T14:36:45.269Z,1.75
2017-12-26T14:39:14.801Z,2.37
2017-12-26T14:41:47.626Z,4.32
2017-12-26T14:44:18.405Z,1.80
2017-12-26T14:46:48.614Z,1.73
2017-12-26T14:49:18.824Z,1.80
2017-12-26T14:51:46.948Z,1.90
2017-12-26T14:57:03.783Z,2.72
2017-12-26T14:59:33.740Z,2.08
2017-12-26T15:02:02.997Z,1.60
2017-12-26T15:04:36.904Z,1.10
2017-12-26T15:07:05.013Z,1.33
2017-12-26T15:09:33.048Z,1.80
2017-12-26T15:12:02.138Z,1.52
2017-12-26T15:14:31.222Z,1.42
2017-12-26T15:16:59.661Z,2.03
2017-12-26T15:19:33.359Z,2.53
2017-12-26T15:22:03.854Z,2.67
2017-12-26T15:24:31.858Z,2.45
2017-12-26T15:26:59.732Z,2.50
2017-12-26T15:29:28.214Z,2.33
2017-12-26T15:31:56.855Z,3.37
2017-12-26T15:34:26.207Z,2.75
2017-12-26T15:37:04.774Z,2.20
2017-12-26T15:39:34.786Z,2.67
2017-12-26T15:42:03.259Z,2.35
2017-12-26T15:44:33.285Z,2.78
2017-12-26T15:47:19.961Z,3.62
2017-12-26T15:50:02.407Z,1.95
2017-12-26T15:52:35.556Z,2.22
2017-12-26T15:55:03.515Z,2.15
2017-12-26T15:57:31.585Z,3.87
2017-12-26T15:59:59.746Z,2.58
2017-12-26T16:02:27.954Z,2.58
2017-12-26T16:04:56.730Z,3.03
2017-12-26T16:07:29.448Z,2.30
2017-12-26T16:10:02.971Z,2.17
2017-12-26T16:12:33.471Z,2.28
2017-12-26T16:15:02.481Z,3.03
2017-12-26T16:17:31.804Z,2.75
2017-12-26T16:20:00.239Z,2.45
2017-12-26T16:22:28.318Z,2.83
2017-12-26T16:24:56.402Z,3.30
2017-12-26T16:27:25.313Z,2.13
2017-12-26T16:29:55.351Z,2.72
2017-12-26T16:32:24.054Z,3.33
2017-12-26T16:34:52.353Z,3.58
2017-12-26T16:37:21.111Z,4.45
2017-12-26T16:39:50.443Z,3.10
2017-12-26T16:42:19.683Z,1.85
2017-12-26T16:44:47.652Z,2.47
2017-12-26T16:47:15.995Z,4.47
2017-12-26T16:49:46.155Z,2.25
2017-12-26T16:52:16.410Z,4.37
2017-12-26T16:54:45.145Z,2.45
2017-12-26T16:57:16.237Z,3.03
2017-12-26T16:59:46.006Z,2.35
2017-12-26T17:02:17.432Z,3.92
2017-12-26T17:04:46.244Z,3.75
2017-12-26T17:07:18.863Z,2.35
2017-12-26T17:09:48.950Z,5.22
2017-12-26T17:12:20.528Z,2.83
2017-12-26T17:14:50.185Z,4.05
2017-12-26T17:17:23.533Z,2.80
2017-12-26T17:19:56.832Z,2.40
2017-12-26T17:22:27.756Z,5.82
2017-12-26T17:24:56.723Z,3.10
2017-12-26T17:27:27.077Z,3.62
2017-12-26T17:29:56.600Z,2.85
2017-12-26T17:32:26.569Z,2.08
2017-12-26T17:34:56.994Z,2.00
2017-12-26T17:37:26.827Z,2.95
2017-12-26T17:40:00.460Z,4.03
2017-12-26T17:42:30.140Z,1.50
2017-12-26T17:45:00.700Z,3.20
2017-12-26T17:47:36.530Z,4.60
2017-12-26T17:50:08.087Z,3.25
2017-12-26T17:52:39.871Z,3.35
2017-12-26T17:55:11.521Z,7.05
2017-12-26T17:57:41.087Z,3.45
2017-12-26T18:00:12.501Z,3.90
2017-12-26T18:02:42.611Z,4.22
2017-12-26T18:05:15.019Z,3.67
2017-12-26T18:07:45.085Z,2.83
2017-12-26T18:10:13.531Z,2.70
2017-12-26T18:12:41.732Z,3.37
2017-12-26T18:15:11.410Z,3.70
2017-12-26T18:17:44.322Z,3.65
2017-12-26T18:20:15.101Z,6.12
2017-12-26T18:22:44.581Z,6.37
2017-12-26T18:25:15.542Z,6.87
2017-12-26T18:27:44.555Z,4.20
2017-12-26T18:30:17.627Z,4.60
2017-12-26T18:32:48.074Z,3.03
2017-12-26T18:35:21.248Z,4.55
2017-12-26T18:37:50.066Z,2.92
2017-12-26T18:40:18.362Z,12.25
2017-12-26T18:42:46.606Z,2.13
2017-12-26T18:45:18.164Z,3.73
2017-12-26T18:47:46.961Z,3.07
2017-12-26T18:50:23.829Z,3.58
2017-12-26T18:52:55.246Z,3.55
2017-12-26T18:55:26.886Z,4.25
2017-12-26T18:57:57.313Z,4.10
2017-12-26T19:00:26.395Z,2.33
2017-12-26T19:03:02.962Z,3.80
2017-12-26T19:05:37.620Z,3.05
2017-12-26T19:08:06.072Z,3.50
2017-12-26T19:10:37.963Z,3.20
2017-12-26T19:13:10.638Z,2.47
2017-12-26T19:15:46.095Z,5.37
2017-12-26T19:18:20.353Z,3.92
2017-12-26T19:20:54.399Z,3.00
2017-12-26T19:23:27.409Z,4.20
2017-12-26T19:25:55.915Z,2.62
2017-12-26T19:28:24.952Z,6.37
2017-12-26T19:30:52.899Z,4.65
2017-12-26T19:33:25.229Z,4.47
2017-12-26T19:35:55.984Z,2.35
2017-12-26T19:38:25.686Z,3.10
2017-12-26T19:41:26.418Z,5.60
2017-12-26T19:43:55.675Z,2.25
2017-12-26T19:46:26.211Z,4.07
2017-12-26T19:48:58.646Z,2.55
2017-12-26T19:51:31.652Z,2.70
2017-12-26T19:54:06.895Z,4.00
2017-12-26T19:56:37.206Z,5.18
2017-12-26T19:59:07.690Z,5.32
2017-12-26T20:01:38.354Z,2.58
2017-12-26T20:04:15.005Z,4.00
2017-12-26T20:06:45.680Z,3.42
2017-12-26T20:09:21.443Z,4.68
2017-12-26T20:11:49.597Z,2.62
2017-12-26T20:14:17.797Z,3.50
2017-12-26T20:16:47.177Z,3.83
2017-12-26T20:19:18.468Z,3.20
2017-12-26T20:21:48.495Z,3.72
2017-12-26T20:24:17.629Z,4.32
2017-12-26T20:26:48.093Z,3.22
2017-12-26T20:29:19.709Z,4.15
2017-12-26T20:31:48.416Z,2.53
2017-12-26T20:34:16.455Z,5.47
2017-12-26T20:36:46.190Z,3.00
2017-12-26T20:39:15.533Z,3.53
2017-12-26T20:41:46.933Z,3.42
2017-12-26T20:44:21.106Z,3.50
2017-12-26T20:46:58.899Z,3.95
2017-12-26T20:49:40.732Z,2.97
2017-12-26T20:52:16.430Z,3.53
2017-12-26T20:54:46.441Z,4.68
2017-12-26T20:57:14.952Z,4.62
2017-12-26T20:59:44.378Z,4.47
2017-12-26T21:02:13.417Z,3.90
2017-12-26T21:04:44.566Z,5.78
2017-12-26T21:07:17.149Z,2.00
2017-12-26T21:09:49.914Z,5.53
2017-12-26T21:12:34.459Z,3.28
2017-12-26T21:15:05.876Z,7.05
2017-12-26T21:17:41.162Z,3.40
2017-12-26T21:20:10.355Z,5.07
2017-12-26T21:22:41.183Z,4.53
2017-12-26T21:25:10.893Z,5.93
2017-12-26T21:27:44.446Z,4.25
2017-12-26T21:30:29.670Z,2.12
2017-12-26T21:33:05.016Z,4.45
2017-12-26T21:35:36.074Z,5.05
2017-12-26T21:38:08.259Z,4.43
2017-12-26T21:40:39.262Z,10.77
2017-12-26T21:43:14.144Z,6.95
2017-12-26T21:45:48.150Z,5.28
2017-12-26T21:50:58.627Z,4.62
2017-12-26T21:53:30.032Z,4.05
2017-12-26T21:56:05.886Z,3.95
2017-12-26T21:58:36.555Z,5.50
2017-12-26T22:01:07.207Z,3.90
2017-12-26T22:03:42.996Z,2.72
2017-12-26T22:06:18.488Z,3.10
2017-12-26T22:08:51.059Z,3.17
2017-12-26T22:11:30.036Z,7.68
2017-12-26T22:14:09.594Z,5.28
2017-12-26T22:16:38.092Z,3.78
2017-12-26T22:19:12.554Z,3.90
2017-12-26T22:21:44.216Z,4.45
2017-12-26T22:24:22.019Z,3.72
2017-12-26T22:26:51.215Z,3.53
2017-12-26T22:29:22.197Z,6.47
2017-12-26T22:31:51.775Z,6.95
2017-12-26T22:34:27.731Z,7.53
2017-12-26T22:37:30.610Z,4.37
2017-12-26T22:40:14.285Z,5.03
2017-12-26T22:42:59.472Z,3.30
2017-12-26T22:45:44.539Z,3.08
2017-12-26T22:48:16.603Z,3.33
2017-12-26T22:50:49.661Z,2.45
2017-12-26T22:53:19.383Z,6.50
2017-12-26T22:55:52.223Z,2.83
2017-12-26T22:58:32.889Z,3.70
2017-12-26T23:01:11.468Z,2.92
2017-12-26T23:04:04.144Z,3.20
2017-12-26T23:06:52.133Z,3.40
2017-12-26T23:09:20.188Z,2.85
2017-12-26T23:11:50.377Z,3.60
2017-12-26T23:14:25.245Z,3.10
2017-12-26T23:18:01.494Z,8.00
2017-12-26T23:20:36.956Z,4.93
2017-12-26T23:23:10.229Z,4.07
2017-12-26T23:27:19.435Z,3.30
2017-12-26T23:30:55.310Z,4.55
2017-12-26T23:34:53.103Z,2.75
2017-12-26T23:42:12.249Z,4.40
2017-12-26T23:45:45.234Z,4.55
2017-12-26T23:50:20.011Z,2.72
2017-12-26T23:52:55.225Z,3.70
2017-12-26T23:57:32.459Z,3.00
